Pagina principale
METAR-TAF:

METAR-TAF

Aeroporti :

Aeroporto Internazionale di Damasco

Damasco, Siria

latitudine: 33-25N, longitudine: 036-31E, altezza: 608 m

Osservazione

Il bollettino è stato emesso 3 ore e 11 minuti fa, alle 21:00 UTC
Vento 5 kt da nord-est
Temperature 15°C
Umidità 27%
Pressione 1017 hPa
Visibilità 10 km o più
nessuna nube inferiore a 1500 m e nessun cumulonembo

METAR: OSDI 302100Z 04005KT CAVOK 15/M04 Q1017

Ora: 03:11 (00:11 UTC)

Previsione

Il bollettino è stato emesso 13 ore e 11 minuti fa, alle 11:00 UTC
Previsione valida dal 30 alle 12 UTC al 31 alle 18 UTC
Vento 15 kt da sud-ovest
Visibilità 10 km o più
nessuna nube inferiore a 1500 m e nessun cumulonembo
Temporaneamente
dal 30 alle 12 UTC al 30 alle 18 UTC
Vento 15 kt da ovest con raffiche fino a 25 kt
Visibilità 10 km o più
Poco nuvoloso ad un'altezza di 3000 ft

TAF: OSDI 301100Z 3012/3118 22015KT CAVOK TEMPO 3012/3018 28015G25KT 9999 FEW030

Osservazioni e previsioni meteorologiche di più di 4000 aeroporti (messaggi METAR e TAF).

Le stazioni disponibili sono rappresentate dai dischi gialli e rossi sulla carta.

Puntare il mouse per vedere il nome della stazione.

Clicca sopra per visualizzare le osservazioni e previsioni meteorologiche.

Per cambiare la mappa : fare clic sui pulsanti verdi con una croce nera per ingrandire, il pulsante verde con un trattino per diminuire, o sulla freccia verde per le mappe adiacenti.


METAR-TAF: